Edith Kirk — 2DST9 — position and weather

sailwx.info

Track history (hours):
 
Tides and Currents Weather Stations Pressure Air Temp Water Temp Dewpoint Dewpoint Depression Visibility Wind Speed Wind Dir Waves Ship Positions

Edith Kirk

Last reported at 2017-Jan-15 18:08 UTC. Time now 2017-Jan-23 04:36 UTC.
Position S 05°11' E 011°07'.

Length 183 m; draft 10.2 m.

Type: Ship. MMSI: 235081745.

Date/timePositionNaut miles runAvg speedWind from/ knotsBaromVisibWave heightAir tempDewpointWater temp
2017-Jan-15 18:08S 05°11' E 011°07'5 8.7
2017-Jan-15 17:33S 05°12' E 011°12'10 9.6
2017-Jan-15 16:33S 05°08' E 011°03'6 5.7
2017-Jan-15 15:32S 05°07' E 010°57'0 0.5
2017-Jan-15 14:33S 05°08' E 010°57'1 0.5
2017-Jan-15 12:04S 05°09' E 010°57'0 0.6
2017-Jan-15 11:33S 05°09' E 010°57'1 0.5
2017-Jan-15 10:08S 05°10' E 010°57'0 0.5
2017-Jan-15 09:33S 05°10' E 010°57'  
Track history (hours):
 
Tides and Currents Weather Stations Pressure Air Temp Water Temp Dewpoint Dewpoint Depression Visibility Wind Speed Wind Dir Waves Ship Positions

Edith Kirk

Last reported at 2017-Jan-15 18:08 UTC. Time now 2017-Jan-23 04:36 UTC.
Position S 05°11' E 011°07'.

Length 183 m; draft 10.2 m.

Type: Ship. MMSI: 235081745.

Date/timePositionNaut miles runAvg speedWind from/ knotsBaromVisibWave heightAir tempDewpointWater temp
2017-Jan-15 18:08S 05°11' E 011°07'5 8.7
2017-Jan-15 17:33S 05°12' E 011°12'10 9.6
2017-Jan-15 16:33S 05°08' E 011°03'6 5.7
2017-Jan-15 15:32S 05°07' E 010°57'0 0.5
2017-Jan-15 14:33S 05°08' E 010°57'1 0.5
2017-Jan-15 12:04S 05°09' E 010°57'0 0.6
2017-Jan-15 11:33S 05°09' E 010°57'1 0.5
2017-Jan-15 10:08S 05°10' E 010°57'0 0.5
2017-Jan-15 09:33S 05°10' E 010°57'  

Dump ship's entire track history